createdAt,value
2022-09-15T00:01:49.032Z,1102.78
2022-09-15T00:07:20.154Z,1102.78
2022-09-15T00:12:51.721Z,1117.00
2022-09-15T00:18:23.007Z,1102.78
2022-09-15T00:23:54.548Z,1117.00
2022-09-15T00:29:26.160Z,1102.78
2022-09-15T00:34:57.557Z,1102.78
2022-09-15T00:40:28.999Z,1117.00
2022-09-15T00:46:00.758Z,1102.78
2022-09-15T00:51:32.093Z,1102.78
2022-09-15T00:57:03.867Z,1102.78
2022-09-15T01:02:35.533Z,1117.00
2022-09-15T01:08:06.876Z,1102.78
2022-09-15T01:13:38.382Z,1117.00
2022-09-15T01:19:10.085Z,1117.00
2022-09-15T01:24:41.529Z,1102.78
2022-09-15T01:30:13.159Z,1117.00
2022-09-15T01:35:44.949Z,1102.78
2022-09-15T01:41:16.855Z,1117.00
2022-09-15T01:46:48.627Z,1102.78
2022-09-15T01:52:20.298Z,1102.78
2022-09-15T01:57:52.188Z,1102.78
2022-09-15T02:03:23.751Z,1102.78
2022-09-15T02:08:55.339Z,1102.78
2022-09-15T02:14:26.913Z,1102.78
2022-09-15T02:19:58.336Z,1102.78
2022-09-15T02:25:29.812Z,1102.78
2022-09-15T02:31:01.542Z,1102.78
2022-09-15T02:36:33.216Z,1102.78
2022-09-15T02:42:04.711Z,1102.78
2022-09-15T02:47:36.585Z,1102.78
2022-09-15T02:53:08.346Z,1102.78
2022-09-15T02:58:39.930Z,1102.78
2022-09-15T03:04:11.804Z,1102.78
2022-09-15T03:09:43.266Z,1117.00
2022-09-15T03:15:14.797Z,1102.78
2022-09-15T03:20:46.756Z,1102.78
2022-09-15T03:26:18.537Z,1102.78
2022-09-15T03:31:50.354Z,1088.80
2022-09-15T03:37:22.188Z,1102.78
2022-09-15T03:42:53.847Z,1102.78
2022-09-15T03:48:25.102Z,1117.00
2022-09-15T03:53:56.422Z,1102.78
2022-09-15T03:59:27.762Z,1102.78
2022-09-15T04:04:59.215Z,1102.78
2022-09-15T04:10:30.916Z,1102.78
2022-09-15T04:16:02.469Z,1117.00
2022-09-15T04:21:34.267Z,1102.78
2022-09-15T04:27:05.715Z,1102.78
2022-09-15T04:32:37.039Z,1102.78
2022-09-15T04:38:08.527Z,1102.78
2022-09-15T04:43:40.110Z,1102.78
2022-09-15T04:49:11.413Z,1102.78
2022-09-15T04:54:42.874Z,1102.78
2022-09-15T05:00:14.678Z,1088.80
2022-09-15T05:05:46.540Z,1507.48
2022-09-15T05:11:18.470Z,1529.52
2022-09-15T05:16:50.186Z,1507.48
2022-09-15T05:22:22.151Z,1507.48
2022-09-15T05:27:54.007Z,1529.52
2022-09-15T05:33:25.497Z,1507.48
2022-09-15T05:38:57.189Z,1507.48
2022-09-15T05:44:28.801Z,1529.52
2022-09-15T05:46:40.551Z,1507.48
2022-09-15T05:52:11.957Z,1507.48
2022-09-15T05:57:43.709Z,1529.52
2022-09-15T06:03:15.607Z,1507.48
2022-09-15T06:08:48.228Z,1529.52
2022-09-15T06:14:18.494Z,1529.52
2022-09-15T06:19:49.984Z,1529.52
2022-09-15T06:25:21.813Z,1529.52
2022-09-15T06:30:53.456Z,1529.52
2022-09-15T06:36:24.835Z,1529.52
2022-09-15T06:42:02.636Z,1529.52
2022-09-15T06:47:28.477Z,1529.52
2022-09-15T06:53:00.320Z,1529.52
2022-09-15T06:58:31.818Z,1117.00
2022-09-15T07:04:03.169Z,1117.00
2022-09-15T07:09:34.853Z,1102.78
2022-09-15T07:15:06.059Z,1117.00
2022-09-15T07:20:37.657Z,1131.48
2022-09-15T07:26:09.380Z,1117.00
2022-09-15T07:31:40.775Z,1552.01
2022-09-15T07:37:12.416Z,1117.00
2022-09-15T07:42:45.423Z,1117.00
2022-09-15T07:48:17.036Z,1102.78
2022-09-15T07:53:48.350Z,1117.00
2022-09-15T07:59:19.793Z,1117.00
2022-09-15T08:04:51.408Z,1131.48
2022-09-15T08:10:22.566Z,1131.48
2022-09-15T08:15:54.104Z,1117.00
2022-09-15T08:21:25.537Z,1117.00
2022-09-15T08:32:26.609Z,1131.48
2022-09-15T08:37:58.025Z,1131.48
2022-09-15T08:43:29.513Z,1131.48
2022-09-15T08:54:30.205Z,1117.00
2022-09-15T09:00:01.659Z,1146.22
2022-09-15T09:05:33.195Z,1131.48
2022-09-15T09:11:04.706Z,1131.48
2022-09-15T09:16:36.111Z,1131.48
2022-09-15T09:22:07.532Z,1146.22
2022-09-15T09:27:39.031Z,1131.48
2022-09-15T09:33:10.268Z,1117.00
2022-09-15T09:38:41.422Z,1117.00
2022-09-15T09:44:12.861Z,1102.78
2022-09-15T09:49:44.216Z,1131.48
2022-09-15T09:55:15.657Z,1131.48
2022-09-15T10:00:46.882Z,1131.48
2022-09-15T10:06:18.121Z,1131.48
2022-09-15T10:11:49.513Z,1131.48
2022-09-15T10:17:20.821Z,1131.48
2022-09-15T10:22:52.173Z,1131.48
2022-09-15T10:28:23.653Z,1102.78
2022-09-15T10:33:55.070Z,1117.00
2022-09-15T10:39:26.685Z,1131.48
2022-09-15T10:44:57.967Z,1131.48
2022-09-15T10:50:29.354Z,1131.48
2022-09-15T10:56:00.944Z,1117.00
2022-09-15T11:01:32.458Z,1131.48
2022-09-15T11:07:03.698Z,1131.48
2022-09-15T11:12:34.998Z,1131.48
2022-09-15T11:23:35.861Z,1131.48
2022-09-15T11:29:07.561Z,1131.48
2022-09-15T11:34:39.054Z,1131.48
2022-09-15T11:40:10.796Z,1117.00
2022-09-15T11:45:41.970Z,1117.00
2022-09-15T11:51:13.747Z,1131.48
2022-09-15T12:02:14.569Z,1131.48
2022-09-15T12:07:45.981Z,1131.48
2022-09-15T12:13:17.216Z,1117.00
2022-09-15T12:18:48.634Z,1117.00
2022-09-15T12:24:20.233Z,1117.00
2022-09-15T12:29:51.611Z,1131.48
2022-09-15T12:35:23.127Z,1131.48
2022-09-15T12:40:54.689Z,1131.48
2022-09-15T12:46:25.884Z,1117.00
2022-09-15T12:51:57.709Z,1131.48
2022-09-15T12:57:29.019Z,1131.48
2022-09-15T13:03:00.269Z,1117.00
2022-09-15T13:08:31.756Z,1131.48
2022-09-15T13:14:03.354Z,1131.48
2022-09-15T13:19:34.605Z,1117.00
2022-09-15T13:25:06.077Z,1131.48
2022-09-15T13:36:06.901Z,1131.48
2022-09-15T13:41:38.532Z,1117.00
2022-09-15T13:47:10.115Z,1117.00
2022-09-15T13:52:41.825Z,1131.48
2022-09-15T14:14:41.508Z,1131.48
2022-09-15T14:20:13.256Z,1131.48
2022-09-15T14:36:43.525Z,1117.00
2022-09-15T14:42:16.710Z,1117.00
2022-09-15T14:47:46.634Z,1102.78
2022-09-15T14:53:18.278Z,1117.00
2022-09-15T14:58:49.943Z,1117.00
2022-09-15T15:09:50.882Z,1102.78
2022-09-15T15:15:22.561Z,1117.00
2022-09-15T15:20:53.840Z,1088.80
2022-09-15T15:26:25.138Z,1088.80
2022-09-15T15:31:56.630Z,1102.78
2022-09-15T15:48:26.680Z,1102.78
2022-09-15T15:53:58.512Z,1102.78
2022-09-15T16:04:59.679Z,1102.78
2022-09-15T16:10:31.584Z,1102.78
2022-09-15T16:16:03.569Z,1102.78
2022-09-15T16:21:35.350Z,1102.78
2022-09-15T16:27:07.013Z,1061.60
2022-09-15T16:38:07.834Z,1102.78
2022-09-15T16:43:39.504Z,1088.80
2022-09-15T16:49:10.890Z,1102.78
2022-09-15T16:57:03.236Z,1102.78
2022-09-15T17:13:35.929Z,1102.78
2022-09-15T17:19:07.318Z,1088.80
2022-09-15T17:24:39.095Z,1102.78
2022-09-15T17:30:10.282Z,1088.80
2022-09-15T17:35:41.653Z,1088.80
2022-09-15T17:41:13.462Z,1102.78
2022-09-15T17:46:45.319Z,1088.80
2022-09-15T18:03:17.365Z,1102.78
2022-09-15T18:14:18.055Z,1102.78
2022-09-15T18:19:49.656Z,1088.80
2022-09-15T18:30:50.436Z,1102.78
2022-09-15T18:36:21.558Z,1102.78
2022-09-15T18:41:52.919Z,1088.80
2022-09-15T18:47:24.310Z,1088.80
2022-09-15T18:52:55.646Z,1088.80
2022-09-15T18:58:26.739Z,1088.80
2022-09-15T19:03:58.334Z,1088.80
2022-09-15T19:09:30.062Z,1102.78
2022-09-15T19:20:31.080Z,1102.78
2022-09-15T19:26:02.684Z,1102.78
2022-09-15T19:31:37.428Z,1102.78
2022-09-15T19:37:10.295Z,1102.78
2022-09-15T19:42:38.510Z,1102.78
2022-09-15T19:48:10.043Z,1102.78
2022-09-15T19:53:41.422Z,1088.80
2022-09-15T19:59:12.954Z,1102.78
2022-09-15T20:04:44.201Z,1088.80
2022-09-15T20:10:15.531Z,1102.78
2022-09-15T20:15:46.775Z,1102.78
2022-09-15T20:21:27.128Z,1102.78
2022-09-15T20:26:50.255Z,1102.78
2022-09-15T20:32:27.486Z,1102.78
2022-09-15T20:37:53.363Z,1088.80
2022-09-15T20:43:25.283Z,1088.80
2022-09-15T20:48:56.973Z,1088.80
2022-09-15T20:54:28.710Z,1102.78
2022-09-15T21:00:00.434Z,1102.78
2022-09-15T21:05:31.639Z,1102.78
2022-09-15T21:11:03.057Z,1088.80
2022-09-15T21:16:36.271Z,1088.80
2022-09-15T21:22:07.603Z,1102.78
2022-09-15T21:27:41.326Z,1088.80
2022-09-15T21:33:12.679Z,1102.78
2022-09-15T21:38:44.500Z,1088.80
2022-09-15T21:44:16.173Z,1102.78
2022-09-15T21:49:47.341Z,1088.80
2022-09-15T21:55:18.745Z,1088.80
2022-09-15T22:00:50.062Z,1102.78
2022-09-15T22:06:21.349Z,1102.78
2022-09-15T22:11:52.645Z,1102.78
2022-09-15T22:17:24.409Z,1088.80
2022-09-15T22:22:55.762Z,1102.78
2022-09-15T22:28:27.458Z,1088.80
2022-09-15T22:33:58.759Z,1088.80
2022-09-15T22:39:50.190Z,1088.80
2022-09-15T22:50:33.700Z,1088.80
2022-09-15T22:56:05.441Z,1102.78
2022-09-15T23:01:37.330Z,1088.80
2022-09-15T23:07:09.120Z,1088.80
2022-09-15T23:12:40.889Z,1088.80
2022-09-15T23:18:12.807Z,1102.78
2022-09-15T23:23:44.378Z,1102.78
2022-09-15T23:29:15.778Z,1088.80
2022-09-15T23:34:47.452Z,1088.80
2022-09-15T23:40:19.232Z,1088.80
2022-09-15T23:51:22.505Z,1088.80
2022-09-15T23:56:54.079Z,1088.80
